sensor_id;sensor_type;location;lat;lon;timestamp;temperature;humidity
48376;DHT22;34178;50.904;11.560;2023-11-21T00:00:49;7.20;99.90
48376;DHT22;34178;50.904;11.560;2023-11-21T00:03:14;7.20;99.90
48376;DHT22;34178;50.904;11.560;2023-11-21T00:05:41;7.10;99.90
48376;DHT22;34178;50.904;11.560;2023-11-21T00:08:07;7.10;99.90
48376;DHT22;34178;50.904;11.560;2023-11-21T00:10:34;7.20;99.90
48376;DHT22;34178;50.904;11.560;2023-11-21T00:13:00;7.20;99.90
48376;DHT22;34178;50.904;11.560;2023-11-21T00:15:27;7.10;99.90
48376;DHT22;34178;50.904;11.560;2023-11-21T00:17:53;7.20;99.90
48376;DHT22;34178;50.904;11.560;2023-11-21T00:20:18;7.20;99.90
48376;DHT22;34178;50.904;11.560;2023-11-21T00:22:44;7.20;99.90
48376;DHT22;34178;50.904;11.560;2023-11-21T00:25:10;7.20;99.90
48376;DHT22;34178;50.904;11.560;2023-11-21T00:27:36;7.10;99.90
48376;DHT22;34178;50.904;11.560;2023-11-21T00:30:02;7.10;99.90
48376;DHT22;34178;50.904;11.560;2023-11-21T00:32:31;7.10;99.90
48376;DHT22;34178;50.904;11.560;2023-11-21T00:34:57;7.20;99.90
48376;DHT22;34178;50.904;11.560;2023-11-21T00:37:23;7.20;99.90
48376;DHT22;34178;50.904;11.560;2023-11-21T00:39:49;7.20;99.90
48376;DHT22;34178;50.904;11.560;2023-11-21T00:42:15;7.20;99.90
48376;DHT22;34178;50.904;11.560;2023-11-21T00:44:40;7.10;99.90
48376;DHT22;34178;50.904;11.560;2023-11-21T00:49:34;7.10;99.90
48376;DHT22;34178;50.904;11.560;2023-11-21T00:51:59;7.10;99.90
48376;DHT22;34178;50.904;11.560;2023-11-21T00:54:26;7.10;99.90
48376;DHT22;34178;50.904;11.560;2023-11-21T00:56:52;7.10;99.90
48376;DHT22;34178;50.904;11.560;2023-11-21T00:59:18;7.10;99.90
48376;DHT22;34178;50.904;11.560;2023-11-21T01:01:43;7.10;99.90
48376;DHT22;34178;50.904;11.560;2023-11-21T01:04:09;7.10;99.90
48376;DHT22;34178;50.904;11.560;2023-11-21T01:06:36;7.10;99.90
48376;DHT22;34178;50.904;11.560;2023-11-21T01:09:01;7.10;99.90
48376;DHT22;34178;50.904;11.560;2023-11-21T01:11:33;7.10;99.90
48376;DHT22;34178;50.904;11.560;2023-11-21T01:14:01;7.10;99.90
48376;DHT22;34178;50.904;11.560;2023-11-21T01:16:28;7.10;99.90
48376;DHT22;34178;50.904;11.560;2023-11-21T01:18:54;7.10;99.90
48376;DHT22;34178;50.904;11.560;2023-11-21T01:21:20;7.10;99.90
48376;DHT22;34178;50.904;11.560;2023-11-21T01:23:46;7.10;99.90
48376;DHT22;34178;50.904;11.560;2023-11-21T01:26:13;7.10;99.90
48376;DHT22;34178;50.904;11.560;2023-11-21T01:28:38;7.10;99.90
48376;DHT22;34178;50.904;11.560;2023-11-21T01:31:04;7.00;99.90
48376;DHT22;34178;50.904;11.560;2023-11-21T01:33:30;7.00;99.90
48376;DHT22;34178;50.904;11.560;2023-11-21T01:35:55;7.00;99.90
48376;DHT22;34178;50.904;11.560;2023-11-21T01:38:21;7.10;99.90
48376;DHT22;34178;50.904;11.560;2023-11-21T01:40:47;7.10;99.90
48376;DHT22;34178;50.904;11.560;2023-11-21T01:43:13;7.00;99.90
48376;DHT22;34178;50.904;11.560;2023-11-21T01:45:39;7.00;99.90
48376;DHT22;34178;50.904;11.560;2023-11-21T01:48:05;7.10;99.90
48376;DHT22;34178;50.904;11.560;2023-11-21T01:50:32;7.10;99.90
48376;DHT22;34178;50.904;11.560;2023-11-21T01:53:00;7.10;99.90
48376;DHT22;34178;50.904;11.560;2023-11-21T01:55:27;7.10;99.90
48376;DHT22;34178;50.904;11.560;2023-11-21T01:57:53;7.10;99.90
48376;DHT22;34178;50.904;11.560;2023-11-21T02:00:19;7.10;99.90
48376;DHT22;34178;50.904;11.560;2023-11-21T02:02:47;7.10;99.90
48376;DHT22;34178;50.904;11.560;2023-11-21T02:05:17;7.10;99.90
48376;DHT22;34178;50.904;11.560;2023-11-21T02:07:47;7.20;99.90
48376;DHT22;34178;50.904;11.560;2023-11-21T02:10:14;7.10;99.90
48376;DHT22;34178;50.904;11.560;2023-11-21T02:12:43;7.10;99.90
48376;DHT22;34178;50.904;11.560;2023-11-21T02:15:13;7.10;99.90
48376;DHT22;34178;50.904;11.560;2023-11-21T02:17:52;7.10;99.90
48376;DHT22;34178;50.904;11.560;2023-11-21T02:20:19;7.10;99.90
48376;DHT22;34178;50.904;11.560;2023-11-21T02:23:03;7.10;99.90
48376;DHT22;34178;50.904;11.560;2023-11-21T02:25:32;7.10;99.90
48376;DHT22;34178;50.904;11.560;2023-11-21T02:28:01;7.10;99.90
48376;DHT22;34178;50.904;11.560;2023-11-21T02:30:27;7.10;99.90
48376;DHT22;34178;50.904;11.560;2023-11-21T02:32:57;7.10;99.90
48376;DHT22;34178;50.904;11.560;2023-11-21T02:35:23;7.10;99.90
48376;DHT22;34178;50.904;11.560;2023-11-21T02:37:51;7.10;99.90
48376;DHT22;34178;50.904;11.560;2023-11-21T02:40:17;7.20;99.90
48376;DHT22;34178;50.904;11.560;2023-11-21T02:42:44;7.20;99.90
48376;DHT22;34178;50.904;11.560;2023-11-21T02:45:10;7.20;99.90
48376;DHT22;34178;50.904;11.560;2023-11-21T02:47:38;7.10;99.90
48376;DHT22;34178;50.904;11.560;2023-11-21T02:50:05;7.10;99.90
48376;DHT22;34178;50.904;11.560;2023-11-21T02:52:33;7.20;99.90
48376;DHT22;34178;50.904;11.560;2023-11-21T02:54:59;7.20;99.90
48376;DHT22;34178;50.904;11.560;2023-11-21T02:57:24;7.20;99.90
48376;DHT22;34178;50.904;11.560;2023-11-21T02:59:50;7.20;99.90
48376;DHT22;34178;50.904;11.560;2023-11-21T03:02:16;7.20;99.90
48376;DHT22;34178;50.904;11.560;2023-11-21T03:04:41;7.20;99.90
48376;DHT22;34178;50.904;11.560;2023-11-21T03:07:08;7.20;99.90
48376;DHT22;34178;50.904;11.560;2023-11-21T03:09:35;7.20;99.90
48376;DHT22;34178;50.904;11.560;2023-11-21T03:12:01;7.20;99.90
48376;DHT22;34178;50.904;11.560;2023-11-21T03:14:26;7.20;99.90
48376;DHT22;34178;50.904;11.560;2023-11-21T03:16:52;7.20;99.90
48376;DHT22;34178;50.904;11.560;2023-11-21T03:19:17;7.10;99.90
48376;DHT22;34178;50.904;11.560;2023-11-21T03:21:43;7.10;99.90
48376;DHT22;34178;50.904;11.560;2023-11-21T03:24:09;7.10;99.90
48376;DHT22;34178;50.904;11.560;2023-11-21T03:26:35;7.10;99.90
48376;DHT22;34178;50.904;11.560;2023-11-21T03:29:00;7.10;99.90
48376;DHT22;34178;50.904;11.560;2023-11-21T03:31:26;7.10;99.90
48376;DHT22;34178;50.904;11.560;2023-11-21T03:33:52;7.10;99.90
48376;DHT22;34178;50.904;11.560;2023-11-21T03:36:19;7.10;99.90
48376;DHT22;34178;50.904;11.560;2023-11-21T03:38:45;7.10;99.90
48376;DHT22;34178;50.904;11.560;2023-11-21T03:41:11;7.10;99.90
48376;DHT22;34178;50.904;11.560;2023-11-21T03:43:37;7.00;99.90
48376;DHT22;34178;50.904;11.560;2023-11-21T03:46:03;6.90;99.90
48376;DHT22;34178;50.904;11.560;2023-11-21T03:48:29;6.90;99.90
48376;DHT22;34178;50.904;11.560;2023-11-21T03:50:55;6.80;99.90
48376;DHT22;34178;50.904;11.560;2023-11-21T03:53:20;6.70;99.90
48376;DHT22;34178;50.904;11.560;2023-11-21T03:55:46;6.60;99.90
48376;DHT22;34178;50.904;11.560;2023-11-21T03:58:12;6.50;99.90
48376;DHT22;34178;50.904;11.560;2023-11-21T04:00:38;6.50;99.90
48376;DHT22;34178;50.904;11.560;2023-11-21T04:03:03;6.50;99.90
48376;DHT22;34178;50.904;11.560;2023-11-21T04:05:30;6.50;99.90
48376;DHT22;34178;50.904;11.560;2023-11-21T04:07:56;6.40;99.90
48376;DHT22;34178;50.904;11.560;2023-11-21T04:10:22;6.40;99.90
48376;DHT22;34178;50.904;11.560;2023-11-21T04:12:48;6.30;99.90
48376;DHT22;34178;50.904;11.560;2023-11-21T04:15:14;6.30;99.90
48376;DHT22;34178;50.904;11.560;2023-11-21T04:17:40;6.20;99.90
48376;DHT22;34178;50.904;11.560;2023-11-21T04:20:07;6.10;99.90
48376;DHT22;34178;50.904;11.560;2023-11-21T04:22:41;6.10;99.90
48376;DHT22;34178;50.904;11.560;2023-11-21T04:25:16;5.90;99.90
48376;DHT22;34178;50.904;11.560;2023-11-21T04:27:42;5.80;99.90
48376;DHT22;34178;50.904;11.560;2023-11-21T04:30:12;5.70;99.90
48376;DHT22;34178;50.904;11.560;2023-11-21T04:32:38;5.60;99.90
48376;DHT22;34178;50.904;11.560;2023-11-21T04:35:07;5.50;99.90
48376;DHT22;34178;50.904;11.560;2023-11-21T04:37:36;5.40;99.90
48376;DHT22;34178;50.904;11.560;2023-11-21T04:40:02;5.30;99.90
48376;DHT22;34178;50.904;11.560;2023-11-21T04:42:35;5.30;99.90
48376;DHT22;34178;50.904;11.560;2023-11-21T04:45:02;5.20;99.90
48376;DHT22;34178;50.904;11.560;2023-11-21T04:47:30;5.10;99.90
48376;DHT22;34178;50.904;11.560;2023-11-21T04:49:56;5.10;99.90
48376;DHT22;34178;50.904;11.560;2023-11-21T04:52:21;5.00;99.90
48376;DHT22;34178;50.904;11.560;2023-11-21T04:54:47;4.90;99.90
48376;DHT22;34178;50.904;11.560;2023-11-21T04:57:13;4.90;99.90
48376;DHT22;34178;50.904;11.560;2023-11-21T04:59:39;4.90;99.90
48376;DHT22;34178;50.904;11.560;2023-11-21T05:02:05;4.80;99.90
48376;DHT22;34178;50.904;11.560;2023-11-21T05:04:30;4.80;99.90
48376;DHT22;34178;50.904;11.560;2023-11-21T05:06:56;4.70;99.90
48376;DHT22;34178;50.904;11.560;2023-11-21T05:09:22;4.60;99.90
48376;DHT22;34178;50.904;11.560;2023-11-21T05:11:47;4.60;99.90
48376;DHT22;34178;50.904;11.560;2023-11-21T05:14:13;4.50;99.90
48376;DHT22;34178;50.904;11.560;2023-11-21T05:16:39;4.60;99.90
48376;DHT22;34178;50.904;11.560;2023-11-21T05:19:05;4.50;99.90
48376;DHT22;34178;50.904;11.560;2023-11-21T05:21:31;4.40;99.90
48376;DHT22;34178;50.904;11.560;2023-11-21T05:24:01;4.40;99.90
48376;DHT22;34178;50.904;11.560;2023-11-21T05:26:27;4.40;99.90
48376;DHT22;34178;50.904;11.560;2023-11-21T05:28:53;4.40;99.90
48376;DHT22;34178;50.904;11.560;2023-11-21T05:31:18;4.40;99.90
48376;DHT22;34178;50.904;11.560;2023-11-21T05:33:44;4.40;99.90
48376;DHT22;34178;50.904;11.560;2023-11-21T05:36:10;4.30;99.90
48376;DHT22;34178;50.904;11.560;2023-11-21T05:38:36;4.30;99.90
48376;DHT22;34178;50.904;11.560;2023-11-21T05:41:02;4.30;99.90
48376;DHT22;34178;50.904;11.560;2023-11-21T05:43:29;4.20;99.90
48376;DHT22;34178;50.904;11.560;2023-11-21T05:45:56;4.10;99.90
48376;DHT22;34178;50.904;11.560;2023-11-21T05:48:22;4.10;99.90
48376;DHT22;34178;50.904;11.560;2023-11-21T05:50:48;4.10;99.90
48376;DHT22;34178;50.904;11.560;2023-11-21T05:53:15;4.00;99.90
48376;DHT22;34178;50.904;11.560;2023-11-21T05:55:41;4.00;99.90
48376;DHT22;34178;50.904;11.560;2023-11-21T05:58:07;3.90;99.90
48376;DHT22;34178;50.904;11.560;2023-11-21T06:00:33;3.90;99.90
48376;DHT22;34178;50.904;11.560;2023-11-21T06:02:59;3.80;99.90
48376;DHT22;34178;50.904;11.560;2023-11-21T06:05:26;3.80;99.90
48376;DHT22;34178;50.904;11.560;2023-11-21T06:07:53;3.80;99.90
48376;DHT22;34178;50.904;11.560;2023-11-21T06:10:20;3.70;99.90
48376;DHT22;34178;50.904;11.560;2023-11-21T06:12:46;3.70;99.90
48376;DHT22;34178;50.904;11.560;2023-11-21T06:15:12;3.70;99.90
48376;DHT22;34178;50.904;11.560;2023-11-21T06:17:42;3.60;99.90
48376;DHT22;34178;50.904;11.560;2023-11-21T06:20:10;3.60;99.90
48376;DHT22;34178;50.904;11.560;2023-11-21T06:22:40;3.60;99.90
48376;DHT22;34178;50.904;11.560;2023-11-21T06:25:07;3.60;99.90
48376;DHT22;34178;50.904;11.560;2023-11-21T06:27:44;3.60;99.90
48376;DHT22;34178;50.904;11.560;2023-11-21T06:30:11;3.60;99.90
48376;DHT22;34178;50.904;11.560;2023-11-21T06:32:38;3.50;99.90
48376;DHT22;34178;50.904;11.560;2023-11-21T06:35:05;3.50;99.90
48376;DHT22;34178;50.904;11.560;2023-11-21T06:37:32;3.50;99.90
48376;DHT22;34178;50.904;11.560;2023-11-21T06:39:59;3.50;99.90
48376;DHT22;34178;50.904;11.560;2023-11-21T06:42:25;3.50;99.90
48376;DHT22;34178;50.904;11.560;2023-11-21T06:44:51;3.50;99.90
48376;DHT22;34178;50.904;11.560;2023-11-21T06:47:17;3.50;99.90
48376;DHT22;34178;50.904;11.560;2023-11-21T06:49:43;3.50;99.90
48376;DHT22;34178;50.904;11.560;2023-11-21T06:52:09;3.60;99.90
48376;DHT22;34178;50.904;11.560;2023-11-21T06:54:35;3.70;99.90
48376;DHT22;34178;50.904;11.560;2023-11-21T06:57:02;3.70;99.90
48376;DHT22;34178;50.904;11.560;2023-11-21T06:59:31;3.80;99.90
48376;DHT22;34178;50.904;11.560;2023-11-21T07:01:57;3.90;99.90
48376;DHT22;34178;50.904;11.560;2023-11-21T07:04:23;3.90;99.90
48376;DHT22;34178;50.904;11.560;2023-11-21T07:06:51;4.10;99.90
48376;DHT22;34178;50.904;11.560;2023-11-21T07:09:17;4.20;99.90
48376;DHT22;34178;50.904;11.560;2023-11-21T07:11:42;4.30;99.90
48376;DHT22;34178;50.904;11.560;2023-11-21T07:14:08;4.40;99.90
48376;DHT22;34178;50.904;11.560;2023-11-21T07:16:37;4.60;99.90
48376;DHT22;34178;50.904;11.560;2023-11-21T07:19:04;4.70;99.90
48376;DHT22;34178;50.904;11.560;2023-11-21T07:21:32;4.80;99.90
48376;DHT22;34178;50.904;11.560;2023-11-21T07:24:02;4.80;99.90
48376;DHT22;34178;50.904;11.560;2023-11-21T07:26:27;5.00;99.90
48376;DHT22;34178;50.904;11.560;2023-11-21T07:28:54;5.10;99.90
48376;DHT22;34178;50.904;11.560;2023-11-21T07:31:19;5.20;99.90
48376;DHT22;34178;50.904;11.560;2023-11-21T07:33:46;5.30;99.90
48376;DHT22;34178;50.904;11.560;2023-11-21T07:36:15;5.40;99.90
48376;DHT22;34178;50.904;11.560;2023-11-21T07:38:42;5.50;99.90
48376;DHT22;34178;50.904;11.560;2023-11-21T07:41:08;5.60;99.90
48376;DHT22;34178;50.904;11.560;2023-11-21T07:43:35;5.60;99.90
48376;DHT22;34178;50.904;11.560;2023-11-21T07:46:01;5.70;99.90
48376;DHT22;34178;50.904;11.560;2023-11-21T07:48:32;5.60;99.90
48376;DHT22;34178;50.904;11.560;2023-11-21T07:50:58;5.70;99.90
48376;DHT22;34178;50.904;11.560;2023-11-21T07:53:24;5.80;99.90
48376;DHT22;34178;50.904;11.560;2023-11-21T07:55:51;5.80;99.90
48376;DHT22;34178;50.904;11.560;2023-11-21T07:58:17;5.90;99.90
48376;DHT22;34178;50.904;11.560;2023-11-21T08:00:44;6.00;99.90
48376;DHT22;34178;50.904;11.560;2023-11-21T08:03:09;6.10;99.90
48376;DHT22;34178;50.904;11.560;2023-11-21T08:05:37;6.30;99.90
48376;DHT22;34178;50.904;11.560;2023-11-21T08:08:02;6.30;99.90
48376;DHT22;34178;50.904;11.560;2023-11-21T08:10:28;6.40;99.90
48376;DHT22;34178;50.904;11.560;2023-11-21T08:12:54;6.50;99.90
48376;DHT22;34178;50.904;11.560;2023-11-21T08:15:20;6.60;99.90
48376;DHT22;34178;50.904;11.560;2023-11-21T08:17:47;6.70;99.90
48376;DHT22;34178;50.904;11.560;2023-11-21T08:20:13;6.70;99.90
48376;DHT22;34178;50.904;11.560;2023-11-21T08:22:44;6.70;99.90
48376;DHT22;34178;50.904;11.560;2023-11-21T08:25:10;6.90;99.90
48376;DHT22;34178;50.904;11.560;2023-11-21T08:27:36;6.90;99.90
48376;DHT22;34178;50.904;11.560;2023-11-21T08:30:03;7.00;99.90
48376;DHT22;34178;50.904;11.560;2023-11-21T08:32:29;7.00;99.90
48376;DHT22;34178;50.904;11.560;2023-11-21T08:34:59;7.10;99.90
48376;DHT22;34178;50.904;11.560;2023-11-21T08:37:25;7.10;99.90
48376;DHT22;34178;50.904;11.560;2023-11-21T08:39:52;7.00;99.90
48376;DHT22;34178;50.904;11.560;2023-11-21T08:42:18;7.00;99.90
48376;DHT22;34178;50.904;11.560;2023-11-21T08:44:44;7.00;99.90
48376;DHT22;34178;50.904;11.560;2023-11-21T08:47:10;7.10;99.90
48376;DHT22;34178;50.904;11.560;2023-11-21T08:49:36;7.20;99.90
48376;DHT22;34178;50.904;11.560;2023-11-21T08:52:02;7.20;99.90
48376;DHT22;34178;50.904;11.560;2023-11-21T08:54:27;7.30;99.90
48376;DHT22;34178;50.904;11.560;2023-11-21T08:56:54;7.30;99.90
48376;DHT22;34178;50.904;11.560;2023-11-21T08:59:20;7.30;99.90
48376;DHT22;34178;50.904;11.560;2023-11-21T09:01:46;7.30;99.90
48376;DHT22;34178;50.904;11.560;2023-11-21T09:04:12;7.30;99.90
48376;DHT22;34178;50.904;11.560;2023-11-21T09:06:39;7.30;99.90
48376;DHT22;34178;50.904;11.560;2023-11-21T09:09:05;7.30;99.90
48376;DHT22;34178;50.904;11.560;2023-11-21T09:11:32;7.30;99.90
48376;DHT22;34178;50.904;11.560;2023-11-21T09:13:59;7.40;99.90
48376;DHT22;34178;50.904;11.560;2023-11-21T09:16:25;7.40;99.90
48376;DHT22;34178;50.904;11.560;2023-11-21T09:18:51;7.50;99.90
48376;DHT22;34178;50.904;11.560;2023-11-21T09:21:17;7.60;99.90
48376;DHT22;34178;50.904;11.560;2023-11-21T09:23:44;7.80;99.90
48376;DHT22;34178;50.904;11.560;2023-11-21T09:26:10;7.90;99.90
48376;DHT22;34178;50.904;11.560;2023-11-21T09:28:35;8.00;99.90
48376;DHT22;34178;50.904;11.560;2023-11-21T09:31:06;8.10;99.90
48376;DHT22;34178;50.904;11.560;2023-11-21T09:33:34;8.20;99.90
48376;DHT22;34178;50.904;11.560;2023-11-21T09:36:00;8.20;99.90
48376;DHT22;34178;50.904;11.560;2023-11-21T09:38:26;8.30;99.90
48376;DHT22;34178;50.904;11.560;2023-11-21T09:40:54;8.30;99.90
48376;DHT22;34178;50.904;11.560;2023-11-21T09:43:22;8.30;99.90
48376;DHT22;34178;50.904;11.560;2023-11-21T09:45:57;8.30;99.90
48376;DHT22;34178;50.904;11.560;2023-11-21T09:48:24;8.30;99.90
48376;DHT22;34178;50.904;11.560;2023-11-21T09:50:51;8.30;99.90
48376;DHT22;34178;50.904;11.560;2023-11-21T09:53:22;8.20;99.90
48376;DHT22;34178;50.904;11.560;2023-11-21T09:55:53;8.20;99.90
48376;DHT22;34178;50.904;11.560;2023-11-21T09:58:20;8.30;99.90
48376;DHT22;34178;50.904;11.560;2023-11-21T10:00:48;8.30;99.90
48376;DHT22;34178;50.904;11.560;2023-11-21T10:03:15;8.30;99.90
48376;DHT22;34178;50.904;11.560;2023-11-21T10:05:43;8.30;99.90
48376;DHT22;34178;50.904;11.560;2023-11-21T10:08:10;8.20;99.90
48376;DHT22;34178;50.904;11.560;2023-11-21T10:10:44;8.10;99.90
48376;DHT22;34178;50.904;11.560;2023-11-21T10:13:12;8.10;99.90
48376;DHT22;34178;50.904;11.560;2023-11-21T10:15:42;8.10;99.90
48376;DHT22;34178;50.904;11.560;2023-11-21T10:18:14;8.20;99.90
48376;DHT22;34178;50.904;11.560;2023-11-21T10:20:44;8.20;99.90
48376;DHT22;34178;50.904;11.560;2023-11-21T10:23:12;8.20;99.90
48376;DHT22;34178;50.904;11.560;2023-11-21T10:25:39;8.20;99.90
48376;DHT22;34178;50.904;11.560;2023-11-21T10:28:04;8.30;99.90
48376;DHT22;34178;50.904;11.560;2023-11-21T10:30:40;8.30;99.90
48376;DHT22;34178;50.904;11.560;2023-11-21T10:33:07;8.40;99.90
48376;DHT22;34178;50.904;11.560;2023-11-21T10:35:46;8.40;99.90
48376;DHT22;34178;50.904;11.560;2023-11-21T10:38:17;8.60;99.90
48376;DHT22;34178;50.904;11.560;2023-11-21T10:40:44;8.60;99.90
48376;DHT22;34178;50.904;11.560;2023-11-21T10:43:10;8.50;99.90
48376;DHT22;34178;50.904;11.560;2023-11-21T10:45:40;8.60;99.90
48376;DHT22;34178;50.904;11.560;2023-11-21T10:48:12;8.60;99.90
48376;DHT22;34178;50.904;11.560;2023-11-21T10:50:41;8.60;99.90
48376;DHT22;34178;50.904;11.560;2023-11-21T10:53:07;8.60;99.90
48376;DHT22;34178;50.904;11.560;2023-11-21T10:55:33;8.50;99.90
48376;DHT22;34178;50.904;11.560;2023-11-21T10:58:02;8.50;99.90
48376;DHT22;34178;50.904;11.560;2023-11-21T11:00:30;8.50;99.90
48376;DHT22;34178;50.904;11.560;2023-11-21T11:02:56;8.60;99.90
48376;DHT22;34178;50.904;11.560;2023-11-21T11:05:30;8.60;99.90
48376;DHT22;34178;50.904;11.560;2023-11-21T11:08:08;8.60;99.90
48376;DHT22;34178;50.904;11.560;2023-11-21T11:10:37;8.60;99.90
48376;DHT22;34178;50.904;11.560;2023-11-21T11:13:04;8.50;99.90
48376;DHT22;34178;50.904;11.560;2023-11-21T11:15:32;8.50;99.90
48376;DHT22;34178;50.904;11.560;2023-11-21T11:17:59;8.50;99.90
48376;DHT22;34178;50.904;11.560;2023-11-21T11:20:45;8.50;99.90
48376;DHT22;34178;50.904;11.560;2023-11-21T11:29:18;8.50;99.90
48376;DHT22;34178;50.904;11.560;2023-11-21T11:32:18;8.50;99.90
48376;DHT22;34178;50.904;11.560;2023-11-21T11:34:57;8.50;99.90
48376;DHT22;34178;50.904;11.560;2023-11-21T11:37:25;8.50;99.90
48376;DHT22;34178;50.904;11.560;2023-11-21T11:39:51;8.50;99.90
48376;DHT22;34178;50.904;11.560;2023-11-21T11:42:17;8.50;99.90
48376;DHT22;34178;50.904;11.560;2023-11-21T11:47:22;8.50;99.90
48376;DHT22;34178;50.904;11.560;2023-11-21T11:50:04;8.40;99.90
48376;DHT22;34178;50.904;11.560;2023-11-21T11:55:12;8.40;99.90
48376;DHT22;34178;50.904;11.560;2023-11-21T11:57:42;8.40;99.90
48376;DHT22;34178;50.904;11.560;2023-11-21T12:00:15;8.40;99.90
48376;DHT22;34178;50.904;11.560;2023-11-21T12:02:58;8.50;99.90
48376;DHT22;34178;50.904;11.560;2023-11-21T12:05:26;8.50;99.90
48376;DHT22;34178;50.904;11.560;2023-11-21T12:07:57;8.50;99.90
48376;DHT22;34178;50.904;11.560;2023-11-21T12:10:27;8.50;99.90
48376;DHT22;34178;50.904;11.560;2023-11-21T12:12:59;8.50;99.90
48376;DHT22;34178;50.904;11.560;2023-11-21T12:15:26;8.60;99.90
48376;DHT22;34178;50.904;11.560;2023-11-21T12:17:54;8.60;99.90
48376;DHT22;34178;50.904;11.560;2023-11-21T12:20:23;8.70;99.90
48376;DHT22;34178;50.904;11.560;2023-11-21T12:22:54;8.60;99.90
48376;DHT22;34178;50.904;11.560;2023-11-21T12:25:28;8.60;99.90
48376;DHT22;34178;50.904;11.560;2023-11-21T12:27:55;8.60;99.90
48376;DHT22;34178;50.904;11.560;2023-11-21T12:30:24;8.60;99.90
48376;DHT22;34178;50.904;11.560;2023-11-21T12:32:54;8.60;99.90
48376;DHT22;34178;50.904;11.560;2023-11-21T12:35:28;8.60;99.90
48376;DHT22;34178;50.904;11.560;2023-11-21T12:37:57;8.60;99.90
48376;DHT22;34178;50.904;11.560;2023-11-21T12:40:24;8.60;99.90
48376;DHT22;34178;50.904;11.560;2023-11-21T12:42:55;8.60;99.90
48376;DHT22;34178;50.904;11.560;2023-11-21T12:45:23;8.70;99.90
48376;DHT22;34178;50.904;11.560;2023-11-21T12:50:25;8.60;99.90
48376;DHT22;34178;50.904;11.560;2023-11-21T12:52:58;8.50;99.90
48376;DHT22;34178;50.904;11.560;2023-11-21T12:55:24;8.50;99.90
48376;DHT22;34178;50.904;11.560;2023-11-21T12:57:53;8.50;99.90
48376;DHT22;34178;50.904;11.560;2023-11-21T13:00:40;8.50;99.90
48376;DHT22;34178;50.904;11.560;2023-11-21T13:03:09;8.40;99.90
48376;DHT22;34178;50.904;11.560;2023-11-21T13:05:39;8.30;99.90
48376;DHT22;34178;50.904;11.560;2023-11-21T13:08:10;8.30;99.90
48376;DHT22;34178;50.904;11.560;2023-11-21T13:10:40;8.20;99.90
48376;DHT22;34178;50.904;11.560;2023-11-21T13:13:08;8.10;99.90
48376;DHT22;34178;50.904;11.560;2023-11-21T13:15:39;8.10;99.90
48376;DHT22;34178;50.904;11.560;2023-11-21T13:18:06;8.00;99.90
48376;DHT22;34178;50.904;11.560;2023-11-21T13:20:32;8.10;99.90
48376;DHT22;34178;50.904;11.560;2023-11-21T13:22:58;8.00;99.90
48376;DHT22;34178;50.904;11.560;2023-11-21T13:25:30;8.00;99.90
48376;DHT22;34178;50.904;11.560;2023-11-21T13:28:00;8.00;99.90
48376;DHT22;34178;50.904;11.560;2023-11-21T13:30:26;7.90;99.90
48376;DHT22;34178;50.904;11.560;2023-11-21T13:32:56;7.80;99.90
48376;DHT22;34178;50.904;11.560;2023-11-21T13:35:27;7.70;99.90
48376;DHT22;34178;50.904;11.560;2023-11-21T13:40:33;7.60;99.90
48376;DHT22;34178;50.904;11.560;2023-11-21T13:43:09;7.50;99.90
48376;DHT22;34178;50.904;11.560;2023-11-21T13:45:42;7.50;99.90
48376;DHT22;34178;50.904;11.560;2023-11-21T13:48:10;7.40;99.90
48376;DHT22;34178;50.904;11.560;2023-11-21T13:50:36;7.40;99.90
48376;DHT22;34178;50.904;11.560;2023-11-21T13:53:03;7.50;99.90
48376;DHT22;34178;50.904;11.560;2023-11-21T13:55:36;7.40;99.90
48376;DHT22;34178;50.904;11.560;2023-11-21T13:58:03;7.40;99.90
48376;DHT22;34178;50.904;11.560;2023-11-21T14:00:30;7.40;99.90
48376;DHT22;34178;50.904;11.560;2023-11-21T14:03:13;7.40;99.90
48376;DHT22;34178;50.904;11.560;2023-11-21T14:05:50;7.40;99.90
48376;DHT22;34178;50.904;11.560;2023-11-21T14:08:21;7.40;99.90
48376;DHT22;34178;50.904;11.560;2023-11-21T14:10:49;7.30;99.90
48376;DHT22;34178;50.904;11.560;2023-11-21T14:13:21;7.30;99.90
48376;DHT22;34178;50.904;11.560;2023-11-21T14:15:49;7.20;99.90
48376;DHT22;34178;50.904;11.560;2023-11-21T14:18:17;7.10;99.90
48376;DHT22;34178;50.904;11.560;2023-11-21T14:20:51;7.10;99.90
48376;DHT22;34178;50.904;11.560;2023-11-21T14:23:17;7.10;99.90
48376;DHT22;34178;50.904;11.560;2023-11-21T14:25:43;7.10;99.90
48376;DHT22;34178;50.904;11.560;2023-11-21T14:28:09;7.00;99.90
48376;DHT22;34178;50.904;11.560;2023-11-21T14:30:38;7.00;99.90
48376;DHT22;34178;50.904;11.560;2023-11-21T14:33:05;6.90;99.90
48376;DHT22;34178;50.904;11.560;2023-11-21T14:35:31;6.90;99.90
48376;DHT22;34178;50.904;11.560;2023-11-21T14:37:58;6.80;99.90
48376;DHT22;34178;50.904;11.560;2023-11-21T14:40:26;6.70;99.90
48376;DHT22;34178;50.904;11.560;2023-11-21T14:42:54;6.70;99.90
48376;DHT22;34178;50.904;11.560;2023-11-21T14:45:22;6.70;99.90
48376;DHT22;34178;50.904;11.560;2023-11-21T14:47:51;6.70;99.90
48376;DHT22;34178;50.904;11.560;2023-11-21T14:50:32;6.70;99.90
48376;DHT22;34178;50.904;11.560;2023-11-21T14:53:13;6.70;99.90
48376;DHT22;34178;50.904;11.560;2023-11-21T14:55:39;6.60;99.90
48376;DHT22;34178;50.904;11.560;2023-11-21T14:58:18;6.60;99.90
48376;DHT22;34178;50.904;11.560;2023-11-21T15:00:55;6.60;99.90
48376;DHT22;34178;50.904;11.560;2023-11-21T15:03:27;6.60;99.90
48376;DHT22;34178;50.904;11.560;2023-11-21T15:05:56;6.50;99.90
48376;DHT22;34178;50.904;11.560;2023-11-21T15:08:22;6.40;99.90
48376;DHT22;34178;50.904;11.560;2023-11-21T15:10:55;6.40;99.90
48376;DHT22;34178;50.904;11.560;2023-11-21T15:13:21;6.50;99.90
48376;DHT22;34178;50.904;11.560;2023-11-21T15:15:48;6.50;99.90
48376;DHT22;34178;50.904;11.560;2023-11-21T15:18:14;6.40;99.90
48376;DHT22;34178;50.904;11.560;2023-11-21T15:20:40;6.30;99.90
48376;DHT22;34178;50.904;11.560;2023-11-21T15:23:07;6.30;99.90
48376;DHT22;34178;50.904;11.560;2023-11-21T15:25:33;6.30;99.90
48376;DHT22;34178;50.904;11.560;2023-11-21T15:28:00;6.30;99.90
48376;DHT22;34178;50.904;11.560;2023-11-21T15:30:26;6.20;99.90
48376;DHT22;34178;50.904;11.560;2023-11-21T15:32:52;6.20;99.90
48376;DHT22;34178;50.904;11.560;2023-11-21T15:35:20;6.30;99.90
48376;DHT22;34178;50.904;11.560;2023-11-21T15:37:46;6.30;99.90
48376;DHT22;34178;50.904;11.560;2023-11-21T15:40:12;6.30;99.90
48376;DHT22;34178;50.904;11.560;2023-11-21T15:42:40;6.40;99.90
48376;DHT22;34178;50.904;11.560;2023-11-21T15:45:06;6.40;99.90
48376;DHT22;34178;50.904;11.560;2023-11-21T15:47:33;6.40;99.90
48376;DHT22;34178;50.904;11.560;2023-11-21T15:49:59;6.40;99.90
48376;DHT22;34178;50.904;11.560;2023-11-21T15:52:24;6.30;99.90